createdAt,value
2018-04-01T00:00:38.919Z,6.50
2018-04-01T00:03:07.073Z,6.40
2018-04-01T00:05:34.065Z,6.40
2018-04-01T00:08:01.119Z,6.40
2018-04-01T00:10:28.143Z,6.40
2018-04-01T00:12:55.128Z,6.60
2018-04-01T00:15:22.181Z,6.70
2018-04-01T00:17:50.299Z,6.70
2018-04-01T00:20:17.291Z,6.70
2018-04-01T00:22:44.277Z,6.60
2018-04-01T00:25:12.083Z,6.60
2018-04-01T00:27:39.073Z,6.60
2018-04-01T00:30:06.051Z,6.80
2018-04-01T00:32:33.047Z,6.90
2018-04-01T00:35:00.028Z,7.10
2018-04-01T00:37:27.784Z,7.20
2018-04-01T00:39:54.781Z,7.20
2018-04-01T00:42:21.822Z,7.30
2018-04-01T00:44:48.871Z,7.30
2018-04-01T00:47:15.869Z,7.30
2018-04-01T00:49:43.611Z,7.20
2018-04-01T00:52:10.600Z,7.20
2018-04-01T00:54:37.588Z,7.20
2018-04-01T00:57:04.564Z,7.10
2018-04-01T00:59:31.660Z,7.10
2018-04-01T01:01:58.939Z,7.20
2018-04-01T01:04:25.916Z,7.40
2018-04-01T01:06:53.656Z,7.60
2018-04-01T01:09:21.076Z,7.60
2018-04-01T01:11:48.062Z,7.50
2018-04-01T01:14:15.035Z,7.50
2018-04-01T01:16:42.799Z,7.50
2018-04-01T01:19:10.541Z,7.40
2018-04-01T01:21:37.539Z,7.40
2018-04-01T01:24:04.688Z,7.60
2018-04-01T01:26:31.667Z,7.60
2018-04-01T01:28:58.660Z,7.60
2018-04-01T01:31:25.931Z,7.70
2018-04-01T01:33:52.900Z,7.70
2018-04-01T01:36:19.870Z,7.70
2018-04-01T01:38:47.123Z,7.70
2018-04-01T01:41:14.543Z,7.70
2018-04-01T01:43:41.577Z,7.70
2018-04-01T01:46:08.612Z,7.70
2018-04-01T01:48:35.582Z,7.70
2018-04-01T01:51:02.568Z,7.60
2018-04-01T01:53:29.849Z,7.60
2018-04-01T01:55:56.826Z,7.60
2018-04-01T01:58:23.795Z,7.60
2018-04-01T02:00:50.808Z,7.50
2018-04-01T02:03:17.812Z,7.40
2018-04-01T02:05:45.547Z,7.30
2018-04-01T02:08:12.831Z,7.30
2018-04-01T02:10:40.630Z,7.10
2018-04-01T02:13:07.615Z,7.10
2018-04-01T02:15:34.606Z,7.00
2018-04-01T02:18:01.590Z,7.00
2018-04-01T02:20:28.573Z,6.90
2018-04-01T02:22:56.343Z,6.90
2018-04-01T02:25:24.090Z,6.90
2018-04-01T02:27:51.073Z,6.90
2018-04-01T02:30:18.392Z,6.90
2018-04-01T02:32:45.485Z,6.90
2018-04-01T02:35:12.484Z,6.90
2018-04-01T02:37:39.468Z,7.00
2018-04-01T02:40:06.444Z,7.10
2018-04-01T02:42:33.429Z,7.10
2018-04-01T02:45:01.487Z,7.10
2018-04-01T02:47:28.468Z,7.10
2018-04-01T02:49:55.448Z,7.20
2018-04-01T02:52:22.734Z,7.10
2018-04-01T02:54:49.773Z,7.20
2018-04-01T02:57:16.750Z,7.20
2018-04-01T02:59:43.824Z,7.20
2018-04-01T03:02:10.796Z,7.20
2018-04-01T03:04:37.797Z,7.30
2018-04-01T03:07:05.128Z,7.30
2018-04-01T03:09:32.871Z,7.40
2018-04-01T03:11:59.978Z,7.40
2018-04-01T03:14:26.975Z,7.40
2018-04-01T03:16:54.073Z,7.30
2018-04-01T03:19:21.056Z,7.30
2018-04-01T03:21:48.065Z,7.10
2018-04-01T03:24:15.061Z,7.00
2018-04-01T03:26:42.039Z,7.10
2018-04-01T03:29:09.382Z,7.00
2018-04-01T03:31:37.121Z,7.00
2018-04-01T03:34:04.888Z,6.80
2018-04-01T03:36:32.177Z,6.80
2018-04-01T03:38:59.159Z,6.80
2018-04-01T03:41:26.143Z,6.80
2018-04-01T03:43:53.907Z,7.00
2018-04-01T03:46:21.665Z,7.10
2018-04-01T03:48:48.645Z,7.10
2018-04-01T03:51:15.637Z,7.10
2018-04-01T03:53:42.628Z,7.10
2018-04-01T03:56:09.596Z,7.00
2018-04-01T03:58:36.912Z,6.90
2018-04-01T04:01:04.667Z,7.00
2018-04-01T04:03:32.415Z,7.10
2018-04-01T04:05:59.397Z,7.10
2018-04-01T04:08:26.376Z,7.00
2018-04-01T04:10:53.377Z,7.10
2018-04-01T04:13:21.533Z,7.20
2018-04-01T04:15:48.517Z,7.20
2018-04-01T04:18:15.487Z,7.20
2018-04-01T04:20:42.892Z,7.10
2018-04-01T04:23:10.689Z,6.90
2018-04-01T04:25:37.750Z,6.90
2018-04-01T04:28:04.736Z,6.90
2018-04-01T04:30:31.829Z,6.80
2018-04-01T04:32:58.803Z,6.70
2018-04-01T04:35:26.182Z,6.50
2018-04-01T04:37:53.174Z,6.50
2018-04-01T04:40:20.151Z,6.50
2018-04-01T04:42:47.143Z,6.40
2018-04-01T04:45:14.124Z,6.30
2018-04-01T04:47:41.641Z,6.30
2018-04-01T04:50:09.672Z,6.20
2018-04-01T04:52:36.659Z,6.20
2018-04-01T04:55:04.397Z,6.10
2018-04-01T04:57:32.163Z,6.00
2018-04-01T04:59:59.158Z,6.00
2018-04-01T05:02:26.367Z,6.00
2018-04-01T05:04:54.441Z,6.00
2018-04-01T05:07:22.178Z,6.00
2018-04-01T05:09:49.188Z,5.90
2018-04-01T05:12:16.178Z,5.80
2018-04-01T05:14:43.155Z,5.80
2018-04-01T05:17:10.162Z,5.80
2018-04-01T05:19:37.439Z,5.80
2018-04-01T05:22:05.192Z,5.90
2018-04-01T05:24:32.187Z,5.90
2018-04-01T05:26:59.191Z,5.90
2018-04-01T05:29:26.948Z,6.00
2018-04-01T05:31:53.942Z,6.00
2018-04-01T05:34:21.187Z,6.20
2018-04-01T05:36:48.192Z,6.20
2018-04-01T05:39:15.140Z,6.30
2018-04-01T10:07:29.311Z,7.40
2018-04-01T10:09:57.543Z,7.60
2018-04-01T10:12:25.016Z,7.90
2018-04-01T10:14:52.800Z,8.20
2018-04-01T10:17:20.269Z,8.50
2018-04-01T10:19:48.519Z,8.90
2018-04-01T10:22:15.999Z,9.00
2018-04-01T10:24:44.317Z,9.10
2018-04-01T10:27:11.978Z,9.10
2018-04-01T10:29:39.457Z,9.10
2018-04-01T10:32:06.937Z,9.20
2018-04-01T10:34:34.448Z,9.50
2018-04-01T10:37:01.931Z,9.40
2018-04-01T10:39:29.427Z,8.90
2018-04-01T10:41:57.669Z,8.80
2018-04-01T10:44:25.180Z,8.80
2018-04-01T10:46:52.761Z,8.80
2018-04-01T10:49:20.999Z,8.90
2018-04-01T10:51:48.883Z,9.10
2018-04-01T10:54:16.256Z,9.30
2018-04-01T10:56:43.230Z,9.90
2018-04-01T10:59:10.247Z,9.90
2018-04-01T11:01:37.298Z,10.30
2018-04-01T11:04:05.464Z,10.20
2018-04-01T11:06:32.852Z,10.00
2018-04-01T11:08:59.832Z,9.50
2018-04-01T11:11:27.275Z,9.30
2018-04-01T11:13:55.024Z,9.10
2018-04-01T11:16:22.408Z,9.00
2018-04-01T11:18:49.775Z,8.80
2018-04-01T11:21:17.120Z,8.80
2018-04-01T11:23:44.112Z,8.50
2018-04-01T11:26:11.096Z,8.30
2018-04-01T11:28:38.391Z,8.20
2018-04-01T11:31:05.437Z,8.10
2018-04-01T11:33:32.816Z,7.90
2018-04-01T11:35:59.897Z,8.00
2018-04-01T11:38:26.900Z,8.10
2018-04-01T11:40:54.655Z,8.00
2018-04-01T11:43:22.049Z,7.90
2018-04-01T11:45:49.036Z,8.10
2018-04-01T11:48:16.565Z,8.10
2018-04-01T11:50:44.069Z,8.20
2018-04-01T11:53:12.200Z,8.30
2018-04-01T11:55:39.939Z,8.60
2018-04-01T11:58:06.941Z,8.40
2018-04-01T12:00:34.315Z,8.40
2018-04-01T12:03:01.701Z,8.40
2018-04-01T12:05:29.473Z,8.50
2018-04-01T12:07:56.852Z,8.50
2018-04-01T12:10:23.862Z,8.30
2018-04-01T12:12:51.380Z,8.30
2018-04-01T12:15:18.353Z,8.30
2018-04-01T12:17:45.785Z,8.30
2018-04-01T12:20:13.080Z,8.20
2018-04-01T12:22:40.065Z,8.10
2018-04-01T12:25:07.441Z,8.10
2018-04-01T12:27:34.432Z,8.00
2018-04-01T12:30:01.812Z,8.20
2018-04-01T12:32:28.800Z,8.40
2018-04-01T12:34:56.095Z,8.50
2018-04-01T12:37:24.060Z,8.30
2018-04-01T12:39:51.464Z,8.30
2018-04-01T12:42:19.256Z,8.30
2018-04-01T12:44:46.240Z,8.10
2018-04-01T12:47:13.620Z,8.00
2018-04-01T12:49:41.237Z,8.10
2018-04-01T12:52:08.204Z,8.00
2018-04-01T12:54:35.951Z,8.10
2018-04-01T12:57:03.715Z,8.10
2018-04-01T12:59:31.473Z,8.10
2018-04-01T13:01:58.475Z,8.40
2018-04-01T13:04:25.475Z,8.50
2018-04-01T13:06:53.222Z,8.40
2018-04-01T13:09:20.742Z,8.30
2018-04-01T13:11:47.782Z,8.40
2018-04-01T13:14:14.755Z,8.50
2018-04-01T13:16:41.746Z,7.40
2018-04-01T13:19:09.072Z,8.70
2018-04-01T13:21:36.824Z,8.50
2018-04-01T13:24:04.204Z,8.40
2018-04-01T13:26:31.960Z,8.30
2018-04-01T13:28:59.344Z,8.20
2018-04-01T13:31:26.324Z,8.20
2018-04-01T13:33:54.030Z,8.10
2018-04-01T13:36:21.767Z,8.00
2018-04-01T13:38:48.745Z,8.10
2018-04-01T13:41:17.305Z,7.90
2018-04-01T13:43:45.055Z,7.80
2018-04-01T13:46:12.442Z,7.80
2018-04-01T13:48:40.472Z,7.70
2018-04-01T13:51:07.462Z,7.70
2018-04-01T13:53:35.208Z,7.60
2018-04-01T13:56:02.989Z,7.50
2018-04-01T13:58:30.740Z,7.70
2018-04-01T14:00:58.483Z,7.60
2018-04-01T14:03:25.903Z,7.50
2018-04-01T14:05:52.883Z,7.50
2018-04-01T14:08:20.279Z,7.50
2018-04-01T14:10:47.269Z,7.70
2018-04-01T14:13:14.247Z,7.90
2018-04-01T14:15:41.624Z,7.90
2018-04-01T14:18:08.622Z,7.90
2018-04-01T14:20:35.600Z,8.00
2018-04-01T14:23:03.348Z,7.90
2018-04-01T14:25:30.764Z,8.00
2018-04-01T14:27:58.876Z,8.10
2018-04-01T14:30:25.847Z,8.20
2018-04-01T14:32:53.244Z,8.30
2018-04-01T14:35:20.238Z,8.30
2018-04-01T14:37:47.974Z,8.30
2018-04-01T14:40:15.369Z,8.50
2018-04-01T14:42:42.856Z,8.70
2018-04-01T14:45:10.242Z,8.60
2018-04-01T14:47:37.518Z,8.70
2018-04-01T14:50:04.927Z,8.50
2018-04-01T14:52:32.369Z,8.20
2018-04-01T14:55:00.217Z,8.20
2018-04-01T14:57:27.613Z,8.20
2018-04-01T14:59:54.604Z,8.20
2018-04-01T15:02:22.363Z,8.10
2018-04-01T15:04:49.737Z,7.90
2018-04-01T15:07:16.716Z,7.90
2018-04-01T15:09:44.114Z,7.90
2018-04-01T15:12:11.093Z,7.90
2018-04-01T15:14:38.090Z,8.00
2018-04-01T15:17:05.532Z,7.90
2018-04-01T15:19:32.530Z,7.90
2018-04-01T15:21:59.580Z,8.00
2018-04-01T15:24:26.905Z,7.90
2018-04-01T15:26:54.664Z,7.70
2018-04-01T15:29:21.639Z,7.70
2018-04-01T15:31:48.643Z,7.60
2018-04-01T15:34:16.029Z,7.70
2018-04-01T15:36:43.825Z,7.60
2018-04-01T15:39:11.207Z,7.70
2018-04-01T15:41:38.183Z,7.80
2018-04-01T15:44:05.933Z,7.80
2018-04-01T15:46:33.038Z,7.90
2018-04-01T15:49:00.801Z,7.90
2018-04-01T15:51:28.549Z,7.90
2018-04-01T15:53:55.955Z,8.00
2018-04-01T15:56:22.975Z,7.90
2018-04-01T15:58:49.956Z,8.10
2018-04-01T16:01:17.422Z,8.00
2018-04-01T16:03:44.794Z,7.90
2018-04-01T16:06:12.696Z,7.90
2018-04-01T16:08:40.485Z,8.00
2018-04-01T16:11:08.224Z,8.00
2018-04-01T16:13:35.297Z,7.80
2018-04-01T16:16:02.626Z,7.90
2018-04-01T16:18:29.992Z,7.90
2018-04-01T16:20:57.028Z,7.70
2018-04-01T16:23:24.053Z,7.70
2018-04-01T16:25:51.424Z,7.60
2018-04-01T16:28:18.403Z,7.70
2018-04-01T16:30:45.771Z,7.70
2018-04-01T16:33:13.144Z,7.70
2018-04-01T16:35:40.636Z,7.70
2018-04-01T16:38:08.029Z,7.60
2018-04-01T16:40:35.019Z,7.60
2018-04-01T16:43:01.996Z,7.50
2018-04-01T16:45:30.111Z,7.50
2018-04-01T16:47:57.861Z,7.40
2018-04-01T16:50:25.236Z,7.40
2018-04-01T16:52:52.579Z,7.30
2018-04-01T16:55:20.340Z,7.30
2018-04-01T16:57:47.435Z,7.30
2018-04-01T17:00:14.413Z,7.30
2018-04-01T17:02:41.400Z,7.30
2018-04-01T17:05:08.819Z,7.50
2018-04-01T17:07:37.403Z,7.40
2018-04-01T17:10:04.410Z,7.30
2018-04-01T17:12:31.459Z,7.20
2018-04-01T17:14:58.842Z,7.20
2018-04-01T17:17:26.270Z,7.20
2018-04-01T17:19:53.651Z,7.10
2018-04-01T17:22:21.048Z,7.00
2018-04-01T17:24:48.420Z,7.10
2018-04-01T17:27:15.419Z,7.00
2018-04-01T17:29:42.664Z,7.00
2018-04-01T17:32:10.495Z,7.00
2018-04-01T17:34:38.679Z,7.00
2018-04-01T17:37:06.331Z,6.90
2018-04-01T17:39:33.704Z,7.00
2018-04-01T17:42:01.089Z,7.10
2018-04-01T17:44:28.471Z,7.00
2018-04-01T17:46:55.868Z,7.00
2018-04-01T17:49:22.850Z,7.00
2018-04-01T17:51:49.943Z,7.00
2018-04-01T17:54:16.981Z,7.00
2018-04-01T17:56:43.980Z,7.00
2018-04-01T17:59:11.361Z,7.00
2018-04-01T18:01:38.385Z,6.90
2018-04-01T18:04:05.372Z,7.00
2018-04-01T18:06:33.103Z,6.90
2018-04-01T18:09:00.512Z,6.90
2018-04-01T18:11:28.630Z,6.90
2018-04-01T18:13:56.130Z,7.00
2018-04-01T18:16:23.516Z,6.90
2018-04-01T18:18:50.495Z,6.80
2018-04-01T18:21:17.900Z,6.80
2018-04-01T18:23:44.932Z,6.70
2018-04-01T18:26:12.311Z,6.90
2018-04-01T18:28:40.012Z,7.00
2018-04-01T18:31:07.771Z,7.00
2018-04-01T18:33:36.404Z,7.10
2018-04-01T18:36:03.712Z,7.10
2018-04-01T18:38:31.462Z,7.10
2018-04-01T18:40:58.888Z,7.10
2018-04-01T18:43:26.280Z,7.10
2018-04-01T18:45:54.025Z,7.20
2018-04-01T18:48:21.025Z,7.20
2018-04-01T18:50:49.161Z,7.20
2018-04-01T18:53:16.924Z,7.10
2018-04-01T18:55:43.896Z,7.00
2018-04-01T18:58:10.992Z,7.00
2018-04-01T19:00:38.768Z,7.10
2018-04-01T19:03:06.147Z,7.00
2018-04-01T19:05:33.906Z,7.00
2018-04-01T19:08:01.665Z,7.00
2018-04-01T19:10:28.640Z,7.20
2018-04-01T19:12:56.020Z,7.40
2018-04-01T19:15:24.136Z,7.10
2018-04-01T19:17:52.428Z,7.00
2018-04-01T19:20:20.743Z,6.70
2018-04-01T19:22:48.211Z,6.60
2018-04-01T19:25:15.699Z,6.50
2018-04-01T19:27:43.187Z,6.40
2018-04-01T19:30:11.056Z,6.40
2018-04-01T19:32:38.633Z,6.40
2018-04-01T19:35:06.868Z,6.40
2018-04-01T19:37:35.107Z,6.30
2018-04-01T19:40:02.706Z,6.20
2018-04-01T19:42:30.189Z,6.30
2018-04-01T19:44:58.404Z,6.30
2018-04-01T19:47:26.649Z,6.40
2018-04-01T19:49:54.262Z,6.30
2018-04-01T19:52:21.740Z,6.20
2018-04-01T19:54:49.332Z,6.20
2018-04-01T19:57:16.812Z,6.30
2018-04-01T19:59:44.284Z,6.30
2018-04-01T20:02:11.748Z,6.20
2018-04-01T20:04:39.235Z,6.20
2018-04-01T20:07:06.763Z,6.10
2018-04-01T20:09:34.231Z,6.10
2018-04-01T20:12:02.547Z,6.10
2018-04-01T20:14:30.015Z,6.10
2018-04-01T20:16:57.480Z,6.00
2018-04-01T20:19:24.972Z,6.00
2018-04-01T20:21:53.220Z,6.00
2018-04-01T20:24:20.684Z,6.00
2018-04-01T20:26:48.163Z,6.00
2018-04-01T20:29:16.418Z,6.00
2018-04-01T20:31:44.288Z,6.00
2018-04-01T20:34:11.775Z,6.00
2018-04-01T20:36:40.008Z,5.80
2018-04-01T20:39:07.532Z,5.70
2018-04-01T20:41:35.026Z,5.70
2018-04-01T20:44:02.472Z,5.80
2018-04-01T20:46:30.009Z,5.80
2018-04-01T20:48:57.502Z,5.90
2018-04-01T20:51:25.024Z,5.90
2018-04-01T20:53:52.488Z,5.90
2018-04-01T20:56:20.005Z,5.80
2018-04-01T20:58:47.496Z,5.80
2018-04-01T21:01:15.857Z,5.80
2018-04-01T21:03:43.340Z,5.80
2018-04-01T21:06:10.821Z,5.80
2018-04-01T21:08:38.324Z,5.80
2018-04-01T21:11:06.884Z,5.80
2018-04-01T21:13:34.405Z,5.80
2018-04-01T21:16:02.610Z,5.80
2018-04-01T21:18:30.088Z,5.70
2018-04-01T21:20:57.984Z,5.50
2018-04-01T21:23:26.607Z,5.40
2018-04-01T21:25:54.111Z,5.40
2018-04-01T21:28:21.599Z,5.20
2018-04-01T21:30:49.068Z,5.20
2018-04-01T21:33:16.554Z,5.10
2018-04-01T21:35:44.814Z,4.90
2018-04-01T21:38:12.280Z,4.90
2018-04-01T21:40:39.760Z,4.80
2018-04-01T21:43:07.632Z,4.70
2018-04-01T21:45:35.096Z,4.70
2018-04-01T21:48:02.583Z,4.70
2018-04-01T21:50:30.046Z,4.70
2018-04-01T21:52:57.509Z,4.70
2018-04-01T21:55:25.295Z,5.00
2018-04-01T21:57:52.756Z,5.10
2018-04-01T22:00:20.215Z,5.10
2018-04-01T22:02:48.789Z,5.20
2018-04-01T22:05:16.251Z,5.10
2018-04-01T22:07:43.712Z,4.90
2018-04-01T22:10:12.292Z,4.80
2018-04-01T22:12:39.775Z,4.60
2018-04-01T22:15:07.999Z,4.60
2018-04-01T22:17:36.029Z,4.70
2018-04-01T22:20:03.600Z,4.70
2018-04-01T22:22:31.068Z,4.50
2018-04-01T22:24:58.871Z,4.40
2018-04-01T22:27:26.736Z,4.30
2018-04-01T22:29:54.203Z,4.20
2018-04-01T22:32:22.830Z,4.20
2018-04-01T22:34:50.301Z,4.10
2018-04-01T22:37:17.765Z,4.10
2018-04-01T22:39:45.663Z,4.10
2018-04-01T22:42:13.583Z,4.20
2018-04-01T22:44:41.056Z,4.40
2018-04-01T22:47:08.852Z,4.40
2018-04-01T22:49:36.312Z,4.40
2018-04-01T22:52:04.542Z,4.50
2018-04-01T22:54:32.012Z,4.60
2018-04-01T22:56:59.495Z,4.80
2018-04-01T22:59:27.737Z,4.80
2018-04-01T23:01:55.532Z,4.80
2018-04-01T23:04:23.779Z,4.70
2018-04-01T23:06:51.644Z,4.80
2018-04-01T23:09:19.231Z,4.80
2018-04-01T23:11:46.727Z,4.80
2018-04-01T23:14:14.200Z,4.80
2018-04-01T23:16:41.676Z,4.90
2018-04-01T23:19:09.147Z,4.90
2018-04-01T23:21:36.628Z,4.90
2018-04-01T23:24:05.423Z,4.90
2018-04-01T23:26:33.657Z,4.90
2018-04-01T23:29:01.132Z,4.60
2018-04-01T23:31:28.617Z,4.60
2018-04-01T23:33:56.851Z,4.20
2018-04-01T23:36:24.379Z,4.20
2018-04-01T23:38:52.003Z,4.30
2018-04-01T23:41:20.236Z,4.30
2018-04-01T23:43:47.705Z,4.40
2018-04-01T23:46:15.464Z,4.50
2018-04-01T23:48:42.941Z,4.60
2018-04-01T23:51:10.411Z,4.60
2018-04-01T23:53:38.657Z,4.80
2018-04-01T23:56:06.131Z,4.90
2018-04-01T23:58:33.591Z,4.80
